Glen Allen, Virginia
Current Conditions -  °F | °C
As of 6:54 PM on Wednesday 28 Jan 2015 (Local Time) from KOFP Reporting Station
Clear Clear  
Wind Chill: 29°   Ceiling: Unl
Heat Index: 34°   Visibility: 10mi
Dew Point:   Wind: 6mph
Humidity: 27%   Direction: 340°NNW
Pressure: 30.3"   Gusts: NA
Location:  37.67°N, 77.5°W
Report Text: KOFP 282354Z AUTO 34005KT 10SM CLR 01/M16 A3030 RMK AO2 SLP262 T00111161 10056 20011 51022
Loading
Personal Weather Stations






























Interactive Weather Map New forecast layout! Learn more

10-Day Weather Forecast

Advertisements
Track Severe Weather on mobile